Time;durP1;ratioP1;P1;durP2;ratioP2;P2;SDS_P1;SDS_P2;PMS_P1;PMS_P2;Temp;Humidity;BMP_temperature;BMP_pressure;BME280_temperature;BME280_humidity;BME280_pressure;Samples;Min_cycle;Max_cycle;Signal;HPM_P1;HPM_P2
2024/03/09 00:00:32;;;;;;;19.87;15.80;;;10.30;99.90;;;;;;5073701;28;20168;-83
2024/03/09 00:03:01;;;;;;;19.27;15.63;;;10.30;99.90;;;;;;5073444;28;20306;-89
2024/03/09 00:05:28;;;;;;;20.80;15.57;;;10.20;99.90;;;;;;5072308;28;20168;-82
2024/03/09 00:07:56;;;;;;;19.30;16.47;;;10.30;99.90;;;;;;5071794;28;20264;-83
2024/03/09 00:10:23;;;;;;;20.23;14.80;;;10.30;99.90;;;;;;5072016;28;20180;-85
2024/03/09 00:12:49;;;;;;;20.83;16.03;;;10.20;99.90;;;;;;5071749;28;20540;-82
2024/03/09 00:15:17;;;;;;;19.37;16.10;;;10.10;99.90;;;;;;5072300;28;20172;-82
2024/03/09 00:17:43;;;;;;;26.77;19.67;;;10.10;99.90;;;;;;5071807;28;20185;-82
2024/03/09 00:20:12;;;;;;;20.80;16.60;;;10.10;99.90;;;;;;5073718;28;20192;-87
2024/03/09 00:22:39;;;;;;;21.40;16.37;;;10.10;99.90;;;;;;5070998;28;20180;-82
2024/03/09 00:25:05;;;;;;;20.07;16.07;;;10.20;99.90;;;;;;5075087;28;20176;-81
2024/03/09 00:27:31;;;;;;;19.37;15.23;;;10.10;99.90;;;;;;5072977;28;20168;-82
2024/03/09 00:29:57;;;;;;;22.33;16.40;;;10.10;99.90;;;;;;5072434;28;20229;-93
2024/03/09 00:32:25;;;;;;;18.40;15.17;;;10.00;99.90;;;;;;5071840;28;20690;-89
2024/03/09 00:34:53;;;;;;;19.47;15.70;;;9.90;99.90;;;;;;5071825;28;20255;-89
2024/03/09 00:37:19;;;;;;;17.57;14.97;;;9.90;99.90;;;;;;5071197;28;20544;-82
2024/03/09 00:39:47;;;;;;;20.53;15.27;;;9.90;99.90;;;;;;5071617;28;20632;-83
2024/03/09 00:42:18;;;;;;;18.83;15.70;;;10.00;99.90;;;;;;5071900;28;20286;-81
2024/03/09 00:44:45;;;;;;;18.60;15.50;;;10.00;99.90;;;;;;5071579;28;20176;-81
2024/03/09 00:47:11;;;;;;;19.50;15.90;;;10.00;99.90;;;;;;5071467;28;20263;-81
2024/03/09 00:49:37;;;;;;;19.43;15.53;;;10.10;99.90;;;;;;5071358;28;20265;-88
2024/03/09 00:52:06;;;;;;;18.00;14.57;;;10.20;99.90;;;;;;5071301;28;20204;-82
2024/03/09 00:54:35;;;;;;;19.13;15.93;;;10.10;99.90;;;;;;5072698;28;20234;-82
2024/03/09 00:57:01;;;;;;;19.37;16.27;;;10.00;99.90;;;;;;5073549;28;20632;-81
2024/03/09 00:59:28;;;;;;;20.40;15.87;;;10.10;99.90;;;;;;5073424;28;20170;-81
2024/03/09 01:01:55;;;;;;;22.43;16.87;;;10.00;99.90;;;;;;5071842;28;20261;-85
2024/03/09 01:04:22;;;;;;;24.10;18.90;;;9.90;99.90;;;;;;5071508;28;20218;-83
2024/03/09 01:06:48;;;;;;;18.67;16.30;;;9.90;99.90;;;;;;5071407;28;20276;-86
2024/03/09 01:09:13;;;;;;;21.27;16.30;;;9.80;99.90;;;;;;5071338;28;20172;-81
2024/03/09 01:11:40;;;;;;;20.17;16.87;;;9.90;1.00;;;;;;5071370;28;20187;-82
2024/03/09 01:14:07;;;;;;;21.30;16.73;;;10.00;1.00;;;;;;5071338;28;20293;-81
2024/03/09 01:16:33;;;;;;;20.47;16.33;;;10.10;1.00;;;;;;5071478;28;20238;-81
2024/03/09 01:18:59;;;;;;;23.10;16.40;;;10.10;1.00;;;;;;5071279;28;20645;-82
2024/03/09 01:21:28;;;;;;;20.80;17.13;;;10.00;1.00;;;;;;5071007;28;20266;-86
2024/03/09 01:23:54;;;;;;;21.07;16.27;;;10.00;1.00;;;;;;5071293;28;20667;-81
2024/03/09 01:26:20;;;;;;;22.67;17.17;;;10.10;1.00;;;;;;5071432;28;20184;-81
2024/03/09 01:28:46;;;;;;;19.73;16.23;;;10.00;1.00;;;;;;5071425;28;20640;-81
2024/03/09 01:31:13;;;;;;;19.13;15.50;;;9.80;1.00;;;;;;5071631;28;20180;-82
2024/03/09 01:33:39;;;;;;;19.30;15.73;;;9.70;1.00;;;;;;5073595;28;20200;-80
2024/03/09 01:36:05;;;;;;;22.00;17.13;;;9.90;1.00;;;;;;5076701;28;20518;-82
2024/03/09 01:38:31;;;;;;;23.53;17.23;;;10.00;1.00;;;;;;5075480;28;20721;-82
2024/03/09 01:40:57;;;;;;;21.27;16.70;;;10.00;1.00;;;;;;5075518;28;20212;-82
2024/03/09 01:43:23;;;;;;;20.43;16.20;;;10.00;1.00;;;;;;5075549;28;20180;-82
2024/03/09 01:45:49;;;;;;;22.60;17.07;;;10.00;1.00;;;;;;5076775;28;20176;-80
2024/03/09 01:48:20;;;;;;;20.07;16.43;;;10.00;1.00;;;;;;5076043;28;20609;-81
2024/03/09 01:50:46;;;;;;;21.73;16.97;;;10.00;1.00;;;;;;5076581;28;20172;-81
2024/03/09 01:53:13;;;;;;;20.50;16.73;;;10.20;1.00;;;;;;5079085;28;20239;-81
2024/03/09 01:55:41;;;;;;;20.37;17.17;;;10.30;1.00;;;;;;5076839;28;20169;-82
2024/03/09 01:58:08;;;;;;;21.30;16.87;;;10.30;1.00;;;;;;5077112;28;20180;-83
2024/03/09 02:00:36;;;;;;;21.63;16.90;;;10.40;1.00;;;;;;5074978;28;20214;-82
2024/03/09 02:03:08;;;;;;;21.70;16.83;;;10.40;1.00;;;;;;5074966;28;20279;-81
2024/03/09 02:05:36;;;;;;;23.10;17.73;;;10.30;1.00;;;;;;5074932;28;20658;-81
2024/03/09 02:08:05;;;;;;;19.80;16.20;;;10.20;1.00;;;;;;5074890;28;20648;-81
2024/03/09 02:10:32;;;;;;;19.70;16.17;;;10.10;1.00;;;;;;5074717;28;20168;-81
2024/03/09 02:12:57;;;;;;;20.33;16.33;;;10.30;1.00;;;;;;5074617;28;20197;-81
2024/03/09 02:15:29;;;;;;;22.10;16.97;;;10.20;1.00;;;;;;5075710;28;20167;-91
2024/03/09 02:17:59;;;;;;;20.90;16.50;;;10.30;1.00;;;;;;5075643;28;20179;-81
2024/03/09 02:20:30;;;;;;;19.87;16.40;;;10.40;1.00;;;;;;5075704;28;20168;-81
2024/03/09 02:22:57;;;;;;;21.57;17.40;;;10.40;1.00;;;;;;5074531;28;20238;-92
2024/03/09 02:25:24;;;;;;;21.90;16.67;;;10.20;1.00;;;;;;5074464;28;20179;-81
2024/03/09 02:27:53;;;;;;;20.70;16.27;;;10.30;1.00;;;;;;5074348;28;20179;-82
2024/03/09 02:30:20;;;;;;;19.60;16.33;;;10.30;1.00;;;;;;5075167;28;20168;-89
2024/03/09 02:32:45;;;;;;;19.13;16.23;;;10.20;1.00;;;;;;5075494;28;20212;-88
2024/03/09 02:35:12;;;;;;;19.10;16.13;;;10.40;1.00;;;;;;5079584;28;20202;-84
2024/03/09 02:37:38;;;;;;;21.00;16.23;;;10.50;1.00;;;;;;5079646;28;20179;-83
2024/03/09 02:40:07;;;;;;;22.23;16.30;;;10.50;1.00;;;;;;5075019;28;20192;-82
2024/03/09 02:42:34;;;;;;;21.97;16.77;;;10.30;1.00;;;;;;5075072;28;20180;-89
2024/03/09 02:45:00;;;;;;;22.53;16.40;;;10.20;1.00;;;;;;5074953;28;20485;-85
2024/03/09 02:47:26;;;;;;;21.77;16.20;;;10.20;1.00;;;;;;5074654;28;20176;-82
2024/03/09 02:49:54;;;;;;;20.27;16.90;;;10.10;1.00;;;;;;5075913;28;20565;-87
2024/03/09 02:52:20;;;;;;;20.03;15.73;;;9.90;1.00;;;;;;5074807;28;20253;-89
2024/03/09 02:54:46;;;;;;;22.30;16.80;;;9.70;1.00;;;;;;5074522;28;20172;-83
2024/03/09 02:57:16;;;;;;;19.53;16.03;;;9.70;1.00;;;;;;5074376;28;20195;-89
2024/03/09 02:59:43;;;;;;;22.47;17.37;;;9.90;1.00;;;;;;5075743;28;20225;-88
2024/03/09 03:03:45;;;;;;;20.77;16.57;;;9.90;1.00;;;;;;5074568;28;20187;-81
2024/03/09 03:05:01;;;;;;;21.33;16.37;;;10.00;1.00;;;;;;5074873;28;20180;-80
2024/03/09 03:07:27;;;;;;;21.37;16.07;;;10.00;1.00;;;;;;5073506;28;20195;-84
2024/03/09 03:09:57;;;;;;;22.40;17.40;;;10.10;1.00;;;;;;5073532;28;20185;-81
2024/03/09 03:12:23;;;;;;;22.80;17.50;;;10.20;1.00;;;;;;5073295;28;20296;-81
2024/03/09 03:14:50;;;;;;;20.93;16.30;;;10.30;1.00;;;;;;5073517;28;20608;-82
2024/03/09 03:17:16;;;;;;;20.63;15.90;;;10.00;1.00;;;;;;5074402;28;20259;-90
2024/03/09 03:19:41;;;;;;;21.20;16.77;;;9.90;1.00;;;;;;5074679;28;20242;-82
2024/03/09 03:22:07;;;;;;;20.33;15.90;;;9.80;1.00;;;;;;5075319;28;20177;-81
2024/03/09 03:24:33;;;;;;;20.40;16.37;;;9.80;1.00;;;;;;5075287;28;20176;-81
2024/03/09 03:26:59;;;;;;;21.03;16.30;;;9.90;1.00;;;;;;5073557;28;20164;-87
2024/03/09 03:29:27;;;;;;;20.63;16.83;;;9.90;1.00;;;;;;5073433;28;20259;-82
2024/03/09 03:31:56;;;;;;;21.40;16.43;;;9.70;1.00;;;;;;5074035;28;20527;-82
2024/03/09 03:34:22;;;;;;;19.13;15.20;;;9.80;1.00;;;;;;5073140;28;20177;-81
2024/03/09 03:36:48;;;;;;;22.30;16.00;;;9.70;1.00;;;;;;5072789;28;20165;-82
2024/03/09 03:39:13;;;;;;;21.33;17.10;;;9.80;1.00;;;;;;5072966;28;20196;-81
2024/03/09 03:41:39;;;;;;;23.77;17.00;;;10.00;1.00;;;;;;5073019;28;20649;-81
2024/03/09 03:44:05;;;;;;;20.27;16.23;;;9.90;1.00;;;;;;5074281;28;20164;-80
2024/03/09 03:46:31;;;;;;;21.73;16.60;;;9.80;1.00;;;;;;5074060;28;20171;-81
2024/03/09 03:48:57;;;;;;;21.70;17.90;;;9.80;1.00;;;;;;5072817;28;20258;-81
2024/03/09 03:51:23;;;;;;;19.77;16.27;;;9.80;1.00;;;;;;5072830;28;20323;-81
2024/03/09 03:53:48;;;;;;;21.10;16.70;;;9.80;1.00;;;;;;5074111;28;20752;-85
2024/03/09 03:56:14;;;;;;;22.40;16.60;;;9.70;1.00;;;;;;5072413;28;20263;-82
2024/03/09 03:58:47;;;;;;;21.10;16.40;;;9.80;1.00;;;;;;5072139;28;20169;-81
2024/03/09 04:01:13;;;;;;;21.43;16.97;;;9.70;1.00;;;;;;5072560;28;20180;-81
2024/03/09 04:03:38;;;;;;;22.43;16.53;;;9.60;1.00;;;;;;5073632;28;20596;-82
2024/03/09 04:06:07;;;;;;;19.47;15.87;;;9.50;1.00;;;;;;5073802;28;20211;-82
2024/03/09 04:08:32;;;;;;;19.17;15.80;;;9.60;1.00;;;;;;5072244;28;20184;-81
2024/03/09 04:11:00;;;;;;;22.73;17.20;;;9.80;1.00;;;;;;5072477;28;20587;-81
2024/03/09 04:13:25;;;;;;;19.30;16.10;;;9.90;1.00;;;;;;5073581;28;20695;-81
2024/03/09 04:15:52;;;;;;;21.57;17.03;;;9.80;1.00;;;;;;5073745;28;20245;-80
2024/03/09 04:18:19;;;;;;;19.80;16.13;;;9.90;1.00;;;;;;5072396;28;20176;-88
2024/03/09 04:20:44;;;;;;;23.83;16.97;;;9.90;1.00;;;;;;5072698;28;20181;-80
2024/03/09 04:23:15;;;;;;;21.63;16.30;;;9.70;1.00;;;;;;5073051;28;20222;-89
2024/03/09 04:25:42;;;;;;;21.67;16.83;;;9.60;1.00;;;;;;5073648;28;20172;-80
2024/03/09 04:28:12;;;;;;;20.77;17.10;;;9.50;1.00;;;;;;5071675;28;20168;-81
2024/03/09 04:30:39;;;;;;;21.00;16.97;;;9.50;1.00;;;;;;5072200;28;20176;-84
2024/03/09 04:33:06;;;;;;;20.23;16.30;;;9.50;1.00;;;;;;5072225;28;20211;-82
2024/03/09 04:35:33;;;;;;;21.50;16.90;;;9.40;1.00;;;;;;5074031;28;20171;-90
2024/03/09 04:37:59;;;;;;;22.30;16.73;;;9.30;1.00;;;;;;5073175;28;20709;-80
2024/03/09 04:40:27;;;;;;;22.17;16.43;;;9.30;1.00;;;;;;5072923;28;20169;-82
2024/03/09 04:42:53;;;;;;;20.80;16.73;;;9.30;1.00;;;;;;5072502;28;20687;-81
2024/03/09 04:45:25;;;;;;;21.83;16.40;;;9.20;1.00;;;;;;5075298;28;20165;-81
2024/03/09 04:47:54;;;;;;;22.50;17.07;;;9.20;1.00;;;;;;5073707;28;20196;-82
2024/03/09 04:50:19;;;;;;;22.30;17.47;;;9.40;1.00;;;;;;5074448;28;20173;-81
2024/03/09 04:52:49;;;;;;;20.43;15.93;;;9.40;1.00;;;;;;5073987;28;20261;-80
2024/03/09 04:55:19;;;;;;;23.57;17.97;;;9.30;1.00;;;;;;5074542;28;20223;-80
2024/03/09 04:57:45;;;;;;;21.90;16.27;;;9.30;1.00;;;;;;5074425;28;20172;-81
2024/03/09 05:00:14;;;;;;;20.57;15.63;;;9.10;1.00;;;;;;5073654;28;20172;-81
2024/03/09 05:02:45;;;;;;;22.50;16.33;;;9.00;1.90;;;;;;5071945;28;20283;-81
2024/03/09 05:05:11;;;;;;;21.43;16.17;;;8.90;6.10;;;;;;5071636;28;20507;-82
2024/03/09 05:07:37;;;;;;;21.63;16.47;;;8.90;8.00;;;;;;5071007;28;20176;-82
2024/03/09 05:10:05;;;;;;;21.87;16.27;;;8.90;9.40;;;;;;5071629;28;20226;-81
2024/03/09 05:12:31;;;;;;;20.53;16.30;;;8.90;10.00;;;;;;5072036;28;20565;-86
2024/03/09 05:14:58;;;;;;;22.93;17.10;;;8.90;10.10;;;;;;5071639;28;20651;-81
2024/03/09 05:17:24;;;;;;;21.00;16.47;;;8.80;10.90;;;;;;5071374;28;20174;-81
2024/03/09 05:19:50;;;;;;;19.67;15.37;;;8.90;13.90;;;;;;5071664;28;20207;-80
2024/03/09 05:22:16;;;;;;;20.80;16.23;;;9.00;10.50;;;;;;5078668;28;20173;-81
2024/03/09 05:24:42;;;;;;;20.83;16.40;;;9.10;7.00;;;;;;5074145;28;20173;-82
2024/03/09 05:27:08;;;;;;;21.07;15.80;;;9.10;4.00;;;;;;5071715;28;20172;-81
2024/03/09 05:29:33;;;;;;;20.10;15.43;;;8.90;6.00;;;;;;5071337;28;20177;-81
2024/03/09 05:31:59;;;;;;;21.77;16.17;;;8.80;11.20;;;;;;5071123;28;20172;-82
2024/03/09 05:34:25;;;;;;;22.70;15.93;;;8.70;14.20;;;;;;5071604;28;20536;-82
2024/03/09 05:36:51;;;;;;;21.83;16.30;;;8.60;18.00;;;;;;5071415;28;20740;-81
2024/03/09 05:39:17;;;;;;;21.47;15.33;;;8.70;18.70;;;;;;5071130;28;20196;-82
2024/03/09 05:41:43;;;;;;;19.97;15.33;;;8.80;18.00;;;;;;5072121;28;20219;-82
2024/03/09 05:44:09;;;;;;;21.40;15.70;;;8.80;16.80;;;;;;5071638;28;20575;-81
2024/03/09 05:46:35;;;;;;;19.33;15.17;;;8.90;14.70;;;;;;5072935;28;20717;-81
2024/03/09 05:49:00;;;;;;;19.57;14.70;;;8.90;14.40;;;;;;5072539;28;20199;-81
2024/03/09 05:51:26;;;;;;;19.03;14.90;;;8.90;10.80;;;;;;5071806;28;20176;-82
2024/03/09 05:53:53;;;;;;;21.47;16.17;;;8.90;10.00;;;;;;5071909;28;20298;-81
2024/03/09 05:56:19;;;;;;;19.67;14.77;;;8.90;12.90;;;;;;5071333;28;20183;-82
2024/03/09 05:58:45;;;;;;;20.03;14.80;;;9.00;12.30;;;;;;5071275;28;20537;-81
2024/03/09 06:01:11;;;;;;;20.23;15.50;;;9.10;10.90;;;;;;5071210;28;20190;-80
2024/03/09 06:03:41;;;;;;;18.87;14.03;;;9.10;5.90;;;;;;5070866;28;20644;-81
2024/03/09 06:06:07;;;;;;;18.37;15.00;;;9.10;3.20;;;;;;5070661;28;20192;-82
2024/03/09 06:08:34;;;;;;;22.43;16.03;;;9.10;2.70;;;;;;5071080;28;20272;-81
2024/03/09 06:11:02;;;;;;;19.43;14.73;;;9.20;2.50;;;;;;5072242;28;20160;-81
2024/03/09 06:13:30;;;;;;;18.70;14.57;;;9.20;1.00;;;;;;5071387;28;20222;-81
2024/03/09 06:15:55;;;;;;;21.10;15.77;;;9.10;1.00;;;;;;5071001;28;20655;-81
2024/03/09 06:18:23;;;;;;;18.20;14.77;;;9.10;3.40;;;;;;5071536;28;20203;-81
2024/03/09 06:20:49;;;;;;;19.10;14.13;;;9.30;1.30;;;;;;5075075;28;20536;-81
2024/03/09 06:23:15;;;;;;;19.87;14.77;;;9.30;1.00;;;;;;5074960;28;20266;-82
2024/03/09 06:25:41;;;;;;;19.73;15.07;;;9.40;1.00;;;;;;5076257;28;20176;-82
2024/03/09 06:28:13;;;;;;;18.30;14.03;;;9.40;1.00;;;;;;5076027;28;20251;-82
2024/03/09 06:30:39;;;;;;;17.50;13.63;;;9.30;1.00;;;;;;5075513;28;20180;-81
2024/03/09 06:33:05;;;;;;;21.53;15.73;;;9.20;1.00;;;;;;5074528;28;20204;-83
2024/03/09 06:35:31;;;;;;;18.53;13.37;;;9.10;1.00;;;;;;5074695;28;20175;-80
2024/03/09 06:38:04;;;;;;;19.10;14.13;;;9.00;1.00;;;;;;5075777;28;20562;-81
2024/03/09 06:40:36;;;;;;;20.00;14.63;;;9.10;2.80;;;;;;5076330;28;20169;-81
2024/03/09 06:43:11;;;;;;;18.37;14.90;;;9.40;1.00;;;;;;5074695;28;20259;-89
2024/03/09 06:45:40;;;;;;;17.37;14.03;;;9.50;1.00;;;;;;5074424;28;20187;-83
2024/03/09 06:48:07;;;;;;;18.93;14.17;;;9.50;1.00;;;;;;5074074;28;20183;-81
2024/03/09 06:50:35;;;;;;;20.27;14.77;;;9.60;1.00;;;;;;5074104;28;20172;-81
2024/03/09 06:53:01;;;;;;;17.83;14.43;;;9.50;1.00;;;;;;5076855;28;20212;-82
2024/03/09 06:55:29;;;;;;;20.10;15.17;;;9.60;1.00;;;;;;5075444;28;20180;-83
2024/03/09 06:58:02;;;;;;;16.47;13.47;;;9.60;1.00;;;;;;5075540;28;20173;-90
2024/03/09 07:00:34;;;;;;;18.07;13.77;;;9.60;1.00;;;;;;5074368;28;20179;-83
2024/03/09 07:03:00;;;;;;;18.03;14.67;;;9.50;1.00;;;;;;5074324;28;20253;-82
2024/03/09 07:05:30;;;;;;;19.67;14.43;;;9.60;1.00;;;;;;5074090;28;20168;-88
2024/03/09 07:07:57;;;;;;;17.63;13.63;;;9.70;1.00;;;;;;5074014;28;20176;-81
2024/03/09 07:10:23;;;;;;;17.33;12.83;;;9.90;1.00;;;;;;5073841;28;20278;-82
2024/03/09 07:12:49;;;;;;;17.93;14.03;;;9.90;1.00;;;;;;5073810;28;20212;-81
2024/03/09 07:15:15;;;;;;;17.93;14.13;;;9.80;1.00;;;;;;5073528;28;20708;-88
2024/03/09 07:17:48;;;;;;;17.00;13.90;;;9.80;1.00;;;;;;5073984;28;20302;-82
2024/03/09 07:20:16;;;;;;;17.27;13.20;;;9.70;1.00;;;;;;5074352;28;20173;-82
2024/03/09 07:22:49;;;;;;;18.87;13.33;;;9.80;1.00;;;;;;5075028;28;20188;-83
2024/03/09 07:25:24;;;;;;;17.23;13.07;;;10.00;1.00;;;;;;5073921;28;20168;-81
2024/03/09 07:27:54;;;;;;;18.33;12.60;;;10.10;1.00;;;;;;5073440;28;20647;-81
2024/03/09 07:30:21;;;;;;;16.47;12.90;;;10.20;1.00;;;;;;5073256;28;20177;-82
2024/03/09 07:32:49;;;;;;;17.57;13.20;;;10.40;1.00;;;;;;5073656;28;20211;-86
2024/03/09 07:35:19;;;;;;;17.50;12.77;;;10.40;1.00;;;;;;5073877;28;20263;-83
2024/03/09 07:37:55;;;;;;;16.90;12.17;;;10.30;1.00;;;;;;5073115;28;20177;-82
2024/03/09 07:40:22;;;;;;;15.20;12.17;;;10.40;1.00;;;;;;5073115;28;20179;-82
2024/03/09 07:42:48;;;;;;;19.40;12.20;;;10.30;1.00;;;;;;5072834;28;20169;-82
2024/03/09 07:45:15;;;;;;;13.60;11.53;;;10.40;1.00;;;;;;5074155;28;20164;-84
2024/03/09 07:47:46;;;;;;;14.87;11.73;;;10.40;1.00;;;;;;5073025;28;20176;-83
2024/03/09 07:50:13;;;;;;;16.53;12.30;;;10.50;1.00;;;;;;5074227;28;20225;-81
2024/03/09 07:52:50;;;;;;;17.47;12.60;;;10.30;1.00;;;;;;5072661;28;20271;-84
2024/03/09 07:55:17;;;;;;;15.27;11.67;;;10.40;1.00;;;;;;5073819;28;20187;-88
2024/03/09 07:57:46;;;;;;;15.77;11.70;;;10.50;1.00;;;;;;5073425;28;20180;-81
2024/03/09 08:00:17;;;;;;;16.80;12.00;;;10.60;1.00;;;;;;5080877;28;20636;-87
2024/03/09 08:02:46;;;;;;;16.80;11.77;;;10.60;1.00;;;;;;5079339;28;20184;-91
2024/03/09 08:05:16;;;;;;;15.97;10.83;;;10.70;1.00;;;;;;5073499;28;20168;-82
2024/03/09 08:07:46;;;;;;;14.00;10.73;;;10.80;1.00;;;;;;5072042;28;20259;-84
2024/03/09 08:10:20;;;;;;;14.87;10.70;;;10.80;1.00;;;;;;5072520;28;20172;-82
2024/03/09 08:12:47;;;;;;;16.10;10.63;;;10.90;1.00;;;;;;5072926;28;20274;-83
2024/03/09 08:15:13;;;;;;;14.13;10.10;;;11.00;1.00;;;;;;5073581;28;20169;-82
2024/03/09 08:17:39;;;;;;;14.43;9.73;;;11.10;1.00;;;;;;5071948;28;20600;-82
2024/03/09 08:20:06;;;;;;;13.20;11.03;;;11.30;1.00;;;;;;5071588;28;20178;-81
2024/03/09 08:22:40;;;;;;;15.20;10.87;;;11.50;1.00;;;;;;5071776;28;20202;-84
2024/03/09 08:25:11;;;;;;;14.03;10.07;;;11.70;1.00;;;;;;5073025;28;20156;-82
2024/03/09 08:27:41;;;;;;;13.07;10.47;;;11.90;1.00;;;;;;5071561;28;20173;-82
2024/03/09 08:30:14;;;;;;;11.67;9.03;;;12.00;1.00;;;;;;5073268;28;20196;-82
2024/03/09 08:32:44;;;;;;;13.13;10.17;;;12.20;1.00;;;;;;5073334;28;20252;-82
2024/03/09 08:35:10;;;;;;;12.77;10.03;;;12.30;1.00;;;;;;5071565;28;20168;-81
2024/03/09 08:37:41;;;;;;;13.00;9.63;;;12.30;1.00;;;;;;5071392;28;20178;-87
2024/03/09 08:40:10;;;;;;;10.97;9.30;;;12.30;1.00;;;;;;5071491;28;20664;-81
2024/03/09 08:42:37;;;;;;;12.20;9.43;;;12.20;1.00;;;;;;5070430;28;20190;-81
2024/03/09 08:45:09;;;;;;;13.37;9.60;;;12.10;1.00;;;;;;5071126;28;20181;-82
2024/03/09 08:47:41;;;;;;;12.50;9.90;;;12.10;1.00;;;;;;5071151;28;20222;-83
2024/03/09 08:50:10;;;;;;;13.10;9.77;;;12.00;1.00;;;;;;5071119;28;20549;-82
2024/03/09 08:52:39;;;;;;;14.07;10.23;;;11.90;1.00;;;;;;5071739;28;20222;-81
2024/03/09 08:55:13;;;;;;;13.03;9.53;;;11.80;1.00;;;;;;5073157;28;20215;-82
2024/03/09 08:57:46;;;;;;;13.33;9.63;;;12.10;1.00;;;;;;5075211;28;20170;-82
2024/03/09 09:00:13;;;;;;;12.27;9.90;;;12.20;1.00;;;;;;5073019;28;20165;-83
2024/03/09 09:02:40;;;;;;;12.43;9.70;;;12.30;1.00;;;;;;5071677;28;20221;-83
2024/03/09 09:05:11;;;;;;;12.93;9.80;;;12.40;1.00;;;;;;5070861;28;20174;-91
2024/03/09 09:07:46;;;;;;;11.10;9.27;;;12.50;1.00;;;;;;5071078;28;20252;-84
2024/03/09 09:10:14;;;;;;;12.07;9.53;;;12.40;1.00;;;;;;5071130;28;20190;-85
2024/03/09 09:12:44;;;;;;;13.93;9.87;;;12.40;1.00;;;;;;5071453;28;20658;-89
2024/03/09 09:15:16;;;;;;;10.67;9.00;;;12.30;1.00;;;;;;5071834;28;20168;-83
2024/03/09 09:17:42;;;;;;;13.20;9.33;;;12.40;1.00;;;;;;5071152;28;20174;-83
2024/03/09 09:20:12;;;;;;;11.20;8.40;;;12.50;1.00;;;;;;5071092;28;20179;-82
2024/03/09 09:22:48;;;;;;;11.03;7.87;;;12.60;1.00;;;;;;5071174;28;20181;-82
2024/03/09 09:25:14;;;;;;;11.83;8.57;;;12.80;1.00;;;;;;5072218;28;20202;-83
2024/03/09 09:27:40;;;;;;;10.83;8.40;;;12.80;1.00;;;;;;5072124;28;20211;-82
2024/03/09 09:30:08;;;;;;;14.00;9.07;;;12.90;1.00;;;;;;5070891;28;20199;-84
2024/03/09 09:32:34;;;;;;;10.83;8.07;;;13.00;1.00;;;;;;5070823;28;20273;-82
2024/03/09 09:35:02;;;;;;;8.67;7.73;;;13.10;1.00;;;;;;5071148;28;20640;-83
2024/03/09 09:37:29;;;;;;;10.90;8.13;;;13.20;1.00;;;;;;5070930;28;20207;-82
2024/03/09 09:39:55;;;;;;;10.13;8.07;;;13.10;1.00;;;;;;5071308;28;20665;-86
2024/03/09 09:42:28;;;;;;;13.13;8.70;;;13.10;1.00;;;;;;5070848;28;20172;-83
2024/03/09 09:44:56;;;;;;;10.17;7.57;;;13.20;1.00;;;;;;5070564;28;20175;-82
2024/03/09 09:47:25;;;;;;;10.23;7.60;;;13.00;1.00;;;;;;5070097;28;20225;-83
2024/03/09 09:49:53;;;;;;;9.33;7.40;;;13.10;1.00;;;;;;5070427;28;20183;-85
2024/03/09 09:52:29;;;;;;;10.43;7.47;;;13.20;1.00;;;;;;5071307;28;20203;-83
2024/03/09 09:54:55;;;;;;;11.47;7.60;;;13.40;1.00;;;;;;5073984;28;20179;-86
2024/03/09 09:57:21;;;;;;;9.57;7.27;;;13.50;1.00;;;;;;5076373;28;20169;-83
2024/03/09 09:59:47;;;;;;;10.17;7.43;;;13.60;1.00;;;;;;5074988;28;20541;-89
2024/03/09 10:02:16;;;;;;;9.43;6.97;;;13.60;1.00;;;;;;5075443;28;20321;-84
2024/03/09 10:04:43;;;;;;;9.17;7.03;;;13.80;1.00;;;;;;5076315;28;20690;-83
2024/03/09 10:07:09;;;;;;;9.67;6.93;;;13.90;1.00;;;;;;5074811;28;20212;-83
2024/03/09 10:09:35;;;;;;;8.77;6.57;;;13.90;1.00;;;;;;5076005;28;20230;-84
2024/03/09 10:12:01;;;;;;;8.87;6.90;;;13.80;1.00;;;;;;5058408;28;20177;-83
2024/03/09 10:14:30;;;;;;;9.40;6.97;;;13.90;1.00;;;;;;5074320;28;20301;-82
2024/03/09 10:17:19;;;;;;;9.33;6.47;;;13.80;1.00;;;;;;5075043;28;20177;-84
2024/03/09 10:19:45;;;;;;;9.57;6.33;;;13.80;1.00;;;;;;5073892;28;20183;-83
2024/03/09 10:22:11;;;;;;;10.07;6.63;;;13.70;1.00;;;;;;5074419;28;20183;-82
2024/03/09 10:24:57;;;;;;;8.37;5.93;;;13.60;1.00;;;;;;5073704;28;20176;-83
2024/03/09 10:27:26;;;;;;;8.13;6.23;;;13.90;1.00;;;;;;5073829;28;20276;-82
2024/03/09 10:30:10;;;;;;;7.50;6.27;;;14.00;1.00;;;;;;5075831;28;20168;-82
2024/03/09 10:32:37;;;;;;;10.40;6.10;;;14.10;1.00;;;;;;5074321;28;20232;-84
2024/03/09 10:35:06;;;;;;;7.77;5.87;;;14.30;1.00;;;;;;5075243;28;20175;-83
2024/03/09 10:37:32;;;;;;;7.47;5.67;;;14.30;99.90;;;;;;5077847;28;20177;-82
2024/03/09 10:39:58;;;;;;;7.83;5.93;;;14.30;99.90;;;;;;5074050;28;20237;-83
2024/03/09 10:42:25;;;;;;;7.23;5.80;;;14.50;99.90;;;;;;5074538;28;20255;-85
2024/03/09 10:44:52;;;;;;;10.03;5.97;;;14.40;99.90;;;;;;5073908;28;20180;-83
2024/03/09 10:47:21;;;;;;;8.93;6.20;;;14.30;99.90;;;;;;5073636;28;20303;-82
2024/03/09 10:49:53;;;;;;;9.03;6.50;;;14.20;99.90;;;;;;5073633;28;20208;-82
2024/03/09 10:52:23;;;;;;;7.67;6.10;;;14.10;99.90;;;;;;5073686;28;20686;-83
2024/03/09 10:55:04;;;;;;;7.60;5.90;;;14.40;99.90;;;;;;5073812;28;20262;-83
2024/03/09 10:57:30;;;;;;;9.20;5.33;;;14.60;99.90;;;;;;5072927;28;20174;-84
2024/03/09 11:00:00;;;;;;;8.03;6.23;;;14.40;99.90;;;;;;5073061;28;20272;-82
2024/03/09 11:02:26;;;;;;;9.57;6.43;;;14.00;99.90;;;;;;5072917;28;20275;-83
2024/03/09 11:04:53;;;;;;;7.47;5.57;;;14.00;1.00;;;;;;5072645;28;20215;-82
2024/03/09 11:07:20;;;;;;;8.30;6.07;;;14.10;99.90;;;;;;5056046;28;20204;-82
2024/03/09 11:09:50;;;;;;;6.87;5.50;;;14.20;1.00;;;;;;5074716;28;20183;-81
2024/03/09 11:12:19;;;;;;;8.97;6.30;;;14.30;99.90;;;;;;5072851;28;20188;-84
2024/03/09 11:14:52;;;;;;;8.53;6.17;;;14.20;99.90;;;;;;5076717;28;20180;-82
2024/03/09 11:17:30;;;;;;;7.77;5.77;;;14.10;99.90;;;;;;5073967;28;20655;-82
2024/03/09 11:19:56;;;;;;;6.67;5.30;;;14.40;1.00;;;;;;5072379;28;20176;-82
2024/03/09 11:22:41;;;;;;;7.20;5.50;;;14.50;99.90;;;;;;5072788;28;20261;-84
2024/03/09 11:25:11;;;;;;;7.53;5.63;;;14.60;99.90;;;;;;5073000;28;20641;-82
2024/03/09 11:27:38;;;;;;;6.83;5.00;;;14.50;99.90;;;;;;5073047;28;20202;-81
2024/03/09 11:30:07;;;;;;;9.47;5.90;;;14.40;99.90;;;;;;5073168;28;20204;-83
2024/03/09 11:32:33;;;;;;;10.33;5.10;;;14.40;99.90;;;;;;5073962;28;20286;-82
2024/03/09 11:35:28;;;;;;;8.40;5.87;;;14.40;99.90;;;;;;5072634;28;20224;-81
2024/03/09 11:37:57;;;;;;;10.03;5.20;;;14.50;99.90;;;;;;5072047;28;20590;-82
2024/03/09 11:40:26;;;;;;;8.27;5.50;;;14.50;99.90;;;;;;5072925;28;20172;-82
2024/03/09 11:42:59;;;;;;;7.43;5.23;;;14.30;99.90;;;;;;5072299;28;20205;-85
2024/03/09 11:45:29;;;;;;;7.53;5.13;;;14.30;99.90;;;;;;5072809;28;20168;-82
2024/03/09 11:47:56;;;;;;;7.13;5.50;;;14.50;99.90;;;;;;5072312;28;20180;-84
2024/03/09 11:50:24;;;;;;;8.03;5.77;;;14.40;99.90;;;;;;5072239;28;20229;-83
2024/03/09 11:52:53;;;;;;;7.93;5.67;;;14.60;99.90;;;;;;5072131;28;20223;-81
2024/03/09 11:55:20;;;;;;;7.57;5.53;;;14.80;99.90;;;;;;5073596;28;20252;-82
2024/03/09 11:57:47;;;;;;;7.03;5.27;;;14.90;99.90;;;;;;5071487;28;20181;-83
2024/03/09 12:00:15;;;;;;;7.10;5.63;;;15.20;99.90;;;;;;5072414;28;20245;-83
2024/03/09 12:02:40;;;;;;;8.97;5.67;;;15.10;99.90;;;;;;5072084;28;20188;-83
2024/03/09 12:05:18;;;;;;;8.60;5.50;;;14.90;99.90;;;;;;5072063;28;20180;-82
2024/03/09 12:07:46;;;;;;;6.43;5.30;;;14.80;99.90;;;;;;5071724;28;20184;-83
2024/03/09 12:10:13;;;;;;;7.50;5.63;;;14.80;99.90;;;;;;5072053;28;20176;-82
2024/03/09 12:12:52;;;;;;;8.13;5.33;;;14.70;99.90;;;;;;5072401;28;20652;-82
2024/03/09 12:15:20;;;;;;;7.27;5.50;;;14.90;99.90;;;;;;5072118;28;20168;-82
2024/03/09 12:17:47;;;;;;;6.60;5.27;;;15.20;99.90;;;;;;5070945;28;20194;-82
2024/03/09 12:20:13;;;;;;;9.03;5.93;;;15.30;99.90;;;;;;5071295;28;20590;-84
2024/03/09 12:22:39;;;;;;;6.50;4.70;;;15.50;99.90;;;;;;5071259;28;20180;-82
2024/03/09 12:25:07;;;;;;;6.90;5.27;;;15.60;99.90;;;;;;5072136;28;20172;-83
2024/03/09 12:27:34;;;;;;;5.97;4.40;;;15.50;99.90;;;;;;5072519;28;20168;-82
2024/03/09 12:29:59;;;;;;;6.33;5.07;;;15.50;99.90;;;;;;5071472;28;20204;-81
2024/03/09 12:32:26;;;;;;;7.53;4.80;;;15.40;99.90;;;;;;5072223;28;20263;-82
2024/03/09 12:34:54;;;;;;;6.37;5.10;;;15.40;99.90;;;;;;5071387;28;20172;-82
2024/03/09 12:37:27;;;;;;;7.47;5.57;;;15.30;99.90;;;;;;5071722;28;20177;-83
2024/03/09 12:40:25;;;;;;;6.60;4.37;;;15.40;99.90;;;;;;5072449;28;20191;-82
2024/03/09 12:42:54;;;;;;;8.93;4.77;;;15.40;14.00;;;;;;5037657;28;20188;-82
2024/03/09 12:45:24;;;;;;;8.23;5.30;;;15.30;1.00;;;;;;5071255;28;20169;-82
2024/03/09 12:47:58;;;;;;;5.93;4.50;;;15.30;1.00;;;;;;5071685;28;20187;-81